Time;durP1;ratioP1;P1;durP2;ratioP2;P2;SDS_P1;SDS_P2;PMS_P1;PMS_P2;Temp;Humidity;BMP_temperature;BMP_pressure;BME280_temperature;BME280_humidity;BME280_pressure;Samples;Min_cycle;Max_cycle;Signal;HPM_P1;HPM_P2
2022/04/13 00:22:34;;;;;;;24.73;6.05;;;;;;;;;;4404946;28;20521;-62
2022/04/13 00:25:01;;;;;;;37.47;7.65;;;;;;;;;;4190742;34;20129;-63
2022/04/13 00:27:27;;;;;;;39.60;7.25;;;;;;;;;;4190664;34;20137;-63
2022/04/13 00:29:53;;;;;;;35.38;6.90;;;;;;;;;;4191059;34;20157;-62
2022/04/13 00:32:18;;;;;;;28.60;6.15;;;;;;;;;;4190508;34;20120;-62
2022/04/13 00:34:44;;;;;;;27.20;5.72;;;;;;;;;;4190796;34;20545;-62
2022/04/13 00:37:10;;;;;;;29.85;5.57;;;;;;;;;;4190588;34;20121;-62
2022/04/13 00:39:36;;;;;;;21.77;6.22;;;;;;;;;;4190607;34;20567;-62
2022/04/13 00:42:05;;;;;;;31.75;6.55;;;;;;;;;;4190575;34;20678;-63
2022/04/13 00:44:31;;;;;;;26.90;6.10;;;;;;;;;;4190665;34;20103;-62
2022/04/13 00:47:01;;;;;;;37.15;6.35;;;;;;;;;;4190701;34;20117;-63
2022/04/13 00:49:27;;;;;;;28.25;6.80;;;;;;;;;;4178389;34;20124;-62
2022/04/13 00:51:53;;;;;;;21.65;6.90;;;;;;;;;;4190611;34;20109;-62
2022/04/13 00:54:20;;;;;;;23.33;8.35;;;;;;;;;;4177733;34;20435;-63
2022/04/13 00:56:50;;;;;;;31.05;9.95;;;;;;;;;;4190183;34;20183;-63
2022/04/13 00:59:16;;;;;;;11.02;5.87;;;;;;;;;;4189090;34;20511;-64
2022/04/13 01:01:49;;;;;;;14.23;5.12;;;;;;;;;;4190208;34;20510;-65
2022/04/13 01:04:15;;;;;;;12.15;4.62;;;;;;;;;;4189211;34;20106;-65
2022/04/13 01:06:42;;;;;;;12.68;4.37;;;;;;;;;;4189036;34;20195;-66
2022/04/13 01:09:08;;;;;;;10.82;4.18;;;;;;;;;;4190491;34;20117;-65
2022/04/13 01:11:34;;;;;;;11.85;4.37;;;;;;;;;;4190328;34;20137;-65
2022/04/13 01:14:00;;;;;;;10.07;4.30;;;;;;;;;;4190332;34;20110;-66
2022/04/13 01:16:27;;;;;;;6.35;3.90;;;;;;;;;;4192330;34;20451;-66
2022/04/13 01:18:53;;;;;;;12.55;4.78;;;;;;;;;;4192286;34;20574;-66
2022/04/13 01:21:35;;;;;;;10.68;4.93;;;;;;;;;;4190755;34;20094;-66
2022/04/13 01:24:03;;;;;;;12.98;5.65;;;;;;;;;;4192246;34;20447;-66
2022/04/13 01:26:29;;;;;;;11.68;4.78;;;;;;;;;;4192212;34;20197;-66
2022/04/13 01:28:55;;;;;;;11.10;4.78;;;;;;;;;;4192188;34;20198;-66
2022/04/13 01:31:20;;;;;;;7.28;4.43;;;;;;;;;;4192090;34;20110;-66
2022/04/13 01:33:46;;;;;;;8.85;4.60;;;;;;;;;;4179245;34;20109;-65
2022/04/13 01:36:12;;;;;;;9.82;4.82;;;;;;;;;;4192173;34;20283;-65
2022/04/13 01:38:38;;;;;;;10.25;5.05;;;;;;;;;;4192033;34;20128;-65
2022/04/13 01:41:04;;;;;;;6.45;4.68;;;;;;;;;;4191983;34;20205;-65
2022/04/13 01:43:30;;;;;;;18.05;5.20;;;;;;;;;;4192321;34;20606;-65
2022/04/13 01:45:57;;;;;;;10.63;4.78;;;;;;;;;;4192010;34;20213;-67
2022/04/13 01:48:23;;;;;;;12.90;5.65;;;;;;;;;;4192247;34;20078;-65
2022/04/13 01:50:50;;;;;;;7.15;5.05;;;;;;;;;;4192096;34;20231;-66
2022/04/13 01:53:16;;;;;;;8.75;5.18;;;;;;;;;;4191907;34;20193;-66
2022/04/13 01:55:42;;;;;;;14.77;4.87;;;;;;;;;;4179343;34;20655;-67
2022/04/13 01:58:08;;;;;;;7.37;4.50;;;;;;;;;;4191979;34;20190;-67
2022/04/13 02:00:34;;;;;;;11.65;4.53;;;;;;;;;;4179272;34;20629;-67
2022/04/13 02:03:00;;;;;;;7.00;3.70;;;;;;;;;;4191864;34;20099;-68
2022/04/13 02:05:26;;;;;;;9.98;4.03;;;;;;;;;;4192019;34;20550;-65
2022/04/13 02:07:52;;;;;;;10.23;5.03;;;;;;;;;;4191764;34;20594;-65
2022/04/13 02:10:18;;;;;;;7.30;3.85;;;;;;;;;;4192218;34;20114;-66
2022/04/13 02:12:44;;;;;;;12.23;6.15;;;;;;;;;;4191594;34;20545;-63
2022/04/13 02:15:10;;;;;;;14.60;5.30;;;;;;;;;;4192020;34;20126;-63
2022/04/13 02:17:38;;;;;;;7.80;4.40;;;;;;;;;;4191676;34;20113;-63
2022/04/13 02:20:06;;;;;;;16.73;5.07;;;;;;;;;;4191868;34;20141;-63
2022/04/13 02:22:32;;;;;;;14.75;4.68;;;;;;;;;;4191657;34;20198;-63
2022/04/13 02:25:02;;;;;;;16.23;5.47;;;;;;;;;;4178744;34;20530;-63
2022/04/13 02:27:28;;;;;;;42.97;7.70;;;;;;;;;;4191732;34;20110;-63
2022/04/13 02:29:54;;;;;;;46.92;9.15;;;;;;;;;;4191798;34;20231;-63
2022/04/13 02:32:20;;;;;;;36.63;7.97;;;;;;;;;;4191819;34;20633;-62
2022/04/13 02:34:48;;;;;;;40.67;8.18;;;;;;;;;;4191700;34;20133;-62
2022/04/13 02:37:17;;;;;;;25.75;8.15;;;;;;;;;;4191699;34;20512;-63
2022/04/13 02:39:44;;;;;;;43.05;7.37;;;;;;;;;;4191675;34;20117;-63
2022/04/13 02:42:15;;;;;;;31.75;7.57;;;;;;;;;;4191439;34;20117;-62
2022/04/13 02:44:42;;;;;;;43.63;7.68;;;;;;;;;;4191666;34;20602;-62
2022/04/13 02:47:08;;;;;;;23.33;5.85;;;;;;;;;;4191409;34;20130;-61
2022/04/13 02:49:34;;;;;;;22.35;5.30;;;;;;;;;;4191592;34;20648;-63
2022/04/13 02:52:00;;;;;;;19.35;5.12;;;;;;;;;;4190125;34;20145;-63
2022/04/13 02:54:26;;;;;;;14.52;4.20;;;;;;;;;;4191615;34;20518;-63
2022/04/13 02:56:52;;;;;;;9.73;4.25;;;;;;;;;;4191537;34;20593;-63
2022/04/13 02:59:18;;;;;;;13.02;5.57;;;;;;;;;;4191532;34;20510;-62
2022/04/13 03:01:43;;;;;;;13.93;4.05;;;;;;;;;;4191311;34;20121;-63
2022/04/13 03:04:10;;;;;;;13.50;5.32;;;;;;;;;;4191639;34;20129;-62
2022/04/13 03:06:36;;;;;;;18.08;3.78;;;;;;;;;;4191311;34;20119;-62
2022/04/13 03:09:03;;;;;;;7.65;3.00;;;;;;;;;;4191319;34;20555;-64
2022/04/13 03:11:30;;;;;;;10.75;4.37;;;;;;;;;;4191333;34;20126;-64
2022/04/13 03:13:56;;;;;;;14.50;3.08;;;;;;;;;;4191196;34;20129;-64
2022/04/13 03:16:22;;;;;;;13.88;3.67;;;;;;;;;;4178413;34;20121;-62
2022/04/13 03:18:48;;;;;;;11.18;4.20;;;;;;;;;;4191119;34;20193;-62
2022/04/13 03:21:14;;;;;;;20.73;4.15;;;;;;;;;;4191066;34;20145;-61
2022/04/13 03:23:41;;;;;;;14.38;3.35;;;;;;;;;;4190022;34;20130;-62
2022/04/13 03:26:07;;;;;;;27.95;4.03;;;;;;;;;;4191168;34;20690;-62
2022/04/13 03:28:34;;;;;;;6.70;3.33;;;;;;;;;;4191163;34;20090;-62
2022/04/13 03:31:00;;;;;;;23.27;4.32;;;;;;;;;;4191025;34;20118;-65
2022/04/13 03:33:26;;;;;;;12.98;3.35;;;;;;;;;;4191137;34;20186;-64
2022/04/13 03:35:52;;;;;;;12.57;3.55;;;;;;;;;;4176126;34;20549;-64
2022/04/13 03:38:18;;;;;;;14.93;3.83;;;;;;;;;;4177331;34;20113;-63
2022/04/13 03:40:44;;;;;;;7.37;3.40;;;;;;;;;;4178007;34;20134;-63
2022/04/13 03:43:10;;;;;;;9.02;3.65;;;;;;;;;;4190949;34;20107;-63
2022/04/13 03:45:36;;;;;;;7.97;3.42;;;;;;;;;;4190936;34;20549;-63
2022/04/13 03:48:02;;;;;;;15.02;3.92;;;;;;;;;;4190729;34;20238;-64
2022/04/13 03:50:28;;;;;;;9.50;2.53;;;;;;;;;;4191233;34;20118;-64
2022/04/13 03:52:54;;;;;;;3.35;1.87;;;;;;;;;;4191208;34;20189;-65
2022/04/13 03:55:22;;;;;;;11.12;3.78;;;;;;;;;;4191137;34;20137;-65
2022/04/13 03:57:51;;;;;;;12.57;4.53;;;;;;;;;;4190828;34;20130;-65
2022/04/13 04:00:18;;;;;;;5.20;2.90;;;;;;;;;;4190963;34;20118;-64
2022/04/13 04:02:44;;;;;;;7.40;4.20;;;;;;;;;;4190817;34;20118;-62
2022/04/13 04:05:11;;;;;;;6.80;4.05;;;;;;;;;;4178271;34;20106;-63
2022/04/13 04:07:38;;;;;;;18.92;5.28;;;;;;;;;;4190814;34;20141;-63
2022/04/13 04:10:05;;;;;;;9.65;4.00;;;;;;;;;;4177978;34;20152;-63
2022/04/13 04:12:36;;;;;;;15.27;5.15;;;;;;;;;;4190751;34;20125;-64
2022/04/13 04:15:03;;;;;;;15.27;4.05;;;;;;;;;;4190867;34;20121;-64
2022/04/13 04:17:29;;;;;;;12.48;2.95;;;;;;;;;;4177874;34;20104;-65
2022/04/13 04:19:55;;;;;;;28.67;4.80;;;;;;;;;;4190707;34;20124;-62
2022/04/13 04:22:24;;;;;;;10.95;3.50;;;;;;;;;;4190493;34;20213;-58
2022/04/13 04:24:50;;;;;;;7.15;4.15;;;;;;;;;;4190696;34;20510;-60
2022/04/13 04:27:16;;;;;;;13.00;3.20;;;;;;;;;;4191026;34;20110;-61
2022/04/13 04:29:42;;;;;;;7.18;2.45;;;;;;;;;;4190707;34;20152;-61
2022/04/13 04:32:08;;;;;;;6.32;2.60;;;;;;;;;;4190709;34;20529;-59
2022/04/13 04:34:34;;;;;;;21.85;3.53;;;;;;;;;;4190548;34;20130;-59
2022/04/13 04:37:00;;;;;;;7.30;2.65;;;;;;;;;;4190438;34;20210;-60
2022/04/13 04:39:26;;;;;;;7.62;2.95;;;;;;;;;;4190590;34;20112;-61
2022/04/13 04:41:52;;;;;;;6.68;3.78;;;;;;;;;;4189264;34;20114;-61
2022/04/13 04:44:18;;;;;;;13.07;3.15;;;;;;;;;;4190548;34;20119;-61
2022/04/13 04:46:44;;;;;;;3.50;2.40;;;;;;;;;;4190411;34;20123;-61
2022/04/13 04:49:10;;;;;;;20.10;3.83;;;;;;;;;;4189340;34;20225;-61
2022/04/13 04:51:36;;;;;;;10.80;2.65;;;;;;;;;;4190403;34;20129;-61
2022/04/13 04:54:03;;;;;;;11.43;3.17;;;;;;;;;;4177539;34;20223;-62
2022/04/13 04:56:29;;;;;;;3.47;1.87;;;;;;;;;;4190406;34;20133;-60
2022/04/13 04:58:56;;;;;;;4.62;2.25;;;;;;;;;;4190402;34;20602;-61
2022/04/13 05:01:22;;;;;;;8.85;2.65;;;;;;;;;;4190344;34;20529;-61
2022/04/13 05:03:50;;;;;;;1.62;1.52;;;;;;;;;;4190326;34;20114;-61
2022/04/13 05:06:25;;;;;;;6.18;2.50;;;;;;;;;;4190551;34;20122;-60
2022/04/13 05:08:51;;;;;;;7.53;2.45;;;;;;;;;;4177858;34;20107;-60
2022/04/13 05:11:18;;;;;;;5.15;2.58;;;;;;;;;;4189049;34;20118;-62
2022/04/13 05:13:45;;;;;;;12.93;3.17;;;;;;;;;;4190187;34;20124;-61
2022/04/13 05:16:15;;;;;;;18.58;3.40;;;;;;;;;;4177255;34;20214;-61
2022/04/13 05:18:42;;;;;;;7.50;2.90;;;;;;;;;;4190186;34;20133;-63
2022/04/13 05:21:08;;;;;;;9.60;2.17;;;;;;;;;;4190114;34;20292;-60
2022/04/13 05:23:37;;;;;;;9.75;3.75;;;;;;;;;;4189998;34;20145;-60
2022/04/13 05:26:04;;;;;;;12.75;2.62;;;;;;;;;;4189891;34;20119;-60
2022/04/13 05:28:30;;;;;;;6.55;2.42;;;;;;;;;;4190139;34;20500;-60
2022/04/13 05:30:57;;;;;;;6.45;2.08;;;;;;;;;;4189945;34;20110;-61
2022/04/13 05:33:23;;;;;;;4.00;1.75;;;;;;;;;;4189958;34;20196;-63
2022/04/13 05:35:49;;;;;;;11.93;2.75;;;;;;;;;;4190114;34;20186;-60
2022/04/13 05:38:16;;;;;;;4.15;1.92;;;;;;;;;;4188507;34;20187;-61
2022/04/13 05:40:42;;;;;;;2.78;2.20;;;;;;;;;;4190060;34;20083;-61
2022/04/13 05:43:08;;;;;;;6.15;2.00;;;;;;;;;;4190196;34;20129;-59
2022/04/13 05:45:34;;;;;;;9.60;2.67;;;;;;;;;;4189833;34;20137;-61
2022/04/13 05:48:00;;;;;;;1.20;1.10;;;;;;;;;;4189860;34;20218;-60
2022/04/13 05:50:27;;;;;;;2.15;1.67;;;;;;;;;;4190145;34;20263;-60
2022/04/13 05:52:53;;;;;;;5.55;3.12;;;;;;;;;;4189832;34;20536;-59
2022/04/13 05:55:19;;;;;;;1.98;1.62;;;;;;;;;;4189769;34;20142;-60
2022/04/13 05:57:45;;;;;;;1.10;1.10;;;;;;;;;;4189832;34;20113;-59
2022/04/13 06:00:12;;;;;;;0.98;0.98;;;;;;;;;;4190008;34;20128;-60
2022/04/13 06:02:39;;;;;;;5.47;1.77;;;;;;;;;;4192138;34;20128;-60
2022/04/13 06:05:06;;;;;;;1.05;1.05;;;;;;;;;;4191919;34;20511;-60
2022/04/13 06:07:32;;;;;;;2.45;1.98;;;;;;;;;;4191882;34;20469;-61
2022/04/13 06:10:01;;;;;;;2.22;1.33;;;;;;;;;;4192168;34;20193;-60
2022/04/13 06:12:28;;;;;;;0.90;0.90;;;;;;;;;;4191974;34;20141;-60
2022/04/13 06:15:01;;;;;;;0.90;0.90;;;;;;;;;;4192064;34;20140;-60
2022/04/13 06:17:27;;;;;;;5.68;2.30;;;;;;;;;;4191782;34;20225;-60
2022/04/13 06:19:53;;;;;;;3.67;1.98;;;;;;;;;;4189983;34;20674;-61
2022/04/13 06:22:19;;;;;;;4.85;2.05;;;;;;;;;;4191460;34;20127;-61
2022/04/13 06:24:51;;;;;;;0.90;0.90;;;;;;;;;;4190917;34;20173;-62
2022/04/13 06:27:17;;;;;;;1.05;1.05;;;;;;;;;;4191671;34;20121;-59
2022/04/13 06:29:43;;;;;;;4.05;2.17;;;;;;;;;;4191227;34;20125;-60
2022/04/13 06:32:09;;;;;;;10.82;2.47;;;;;;;;;;4191882;34;20545;-60
2022/04/13 06:34:37;;;;;;;5.80;2.28;;;;;;;;;;4191303;34;20474;-60
2022/04/13 06:37:03;;;;;;;1.87;1.52;;;;;;;;;;4178676;34;20126;-61
2022/04/13 06:39:29;;;;;;;8.27;2.67;;;;;;;;;;4191852;34;20128;-61
2022/04/13 06:41:55;;;;;;;4.43;2.17;;;;;;;;;;4191390;34;20625;-61
2022/04/13 06:44:21;;;;;;;2.40;1.25;;;;;;;;;;4190394;34;20114;-61
2022/04/13 06:46:47;;;;;;;6.93;2.37;;;;;;;;;;4190392;34;20129;-61
2022/04/13 06:49:13;;;;;;;0.80;0.80;;;;;;;;;;4191780;34;20293;-61
2022/04/13 06:51:39;;;;;;;2.55;1.92;;;;;;;;;;4191486;34;20459;-61
2022/04/13 06:54:05;;;;;;;4.35;2.37;;;;;;;;;;4178699;34;20090;-61
2022/04/13 06:56:34;;;;;;;2.83;2.05;;;;;;;;;;4191742;34;20121;-61
2022/04/13 06:59:00;;;;;;;2.80;2.40;;;;;;;;;;4191472;34;20498;-62
2022/04/13 07:01:26;;;;;;;3.53;2.30;;;;;;;;;;4191297;34;20097;-60
2022/04/13 07:03:52;;;;;;;5.10;2.00;;;;;;;;;;4191655;34;20103;-60
2022/04/13 07:06:18;;;;;;;7.18;2.60;;;;;;;;;;4191270;34;20510;-61
2022/04/13 07:08:44;;;;;;;3.30;2.33;;;;;;;;;;4191345;34;20209;-64
2022/04/13 07:11:10;;;;;;;4.45;2.70;;;;;;;;;;4189817;34;20137;-62
2022/04/13 07:13:36;;;;;;;3.50;2.65;;;;;;;;;;4190687;34;20205;-60
2022/04/13 07:16:02;;;;;;;4.97;3.33;;;;;;;;;;4178305;34;20102;-63
2022/04/13 07:18:28;;;;;;;10.20;3.70;;;;;;;;;;4178531;34;20149;-63
2022/04/13 07:20:54;;;;;;;3.58;2.12;;;;;;;;;;4191126;34;20102;-63
2022/04/13 07:23:20;;;;;;;1.75;1.27;;;;;;;;;;4177622;34;20113;-62
2022/04/13 07:25:46;;;;;;;8.05;3.00;;;;;;;;;;4177464;34;20114;-63
2022/04/13 07:28:13;;;;;;;5.53;1.62;;;;;;;;;;4177395;34;20216;-61
2022/04/13 07:30:39;;;;;;;1.50;1.40;;;;;;;;;;4177530;34;20483;-60
2022/04/13 07:33:05;;;;;;;1.12;1.10;;;;;;;;;;4177538;34;20134;-61
2022/04/13 07:35:32;;;;;;;4.03;2.42;;;;;;;;;;4164730;34;20118;-61
2022/04/13 07:37:58;;;;;;;9.70;3.22;;;;;;;;;;4177333;34;20103;-60
2022/04/13 07:40:24;;;;;;;6.25;3.08;;;;;;;;;;4164675;34;20146;-59
2022/04/13 07:42:50;;;;;;;1.33;1.23;;;;;;;;;;4177409;34;20099;-60
2022/04/13 07:45:16;;;;;;;8.80;1.35;;;;;;;;;;4177429;34;20161;-59
2022/04/13 07:47:42;;;;;;;7.00;2.45;;;;;;;;;;4177639;34;20110;-61
2022/04/13 07:50:12;;;;;;;5.95;2.87;;;;;;;;;;4177453;34;20099;-63
2022/04/13 07:52:40;;;;;;;6.07;2.90;;;;;;;;;;4177191;34;20122;-66
2022/04/13 07:55:07;;;;;;;3.75;2.85;;;;;;;;;;4164729;34;20114;-67
2022/04/13 07:57:33;;;;;;;6.10;4.00;;;;;;;;;;4177134;34;20158;-67
2022/04/13 07:59:59;;;;;;;4.65;2.53;;;;;;;;;;4177530;34;20152;-65
2022/04/13 08:02:26;;;;;;;13.57;3.20;;;;;;;;;;4177212;34;20099;-68
2022/04/13 08:04:52;;;;;;;6.03;2.67;;;;;;;;;;4177246;34;20536;-61
2022/04/13 08:07:18;;;;;;;11.18;3.60;;;;;;;;;;4177173;34;20118;-61
2022/04/13 08:09:44;;;;;;;6.60;4.00;;;;;;;;;;4177297;34;20186;-60
2022/04/13 08:12:10;;;;;;;4.78;2.72;;;;;;;;;;4177253;34;20110;-64
2022/04/13 08:14:36;;;;;;;3.97;3.10;;;;;;;;;;4177380;34;20098;-61
2022/04/13 08:17:04;;;;;;;9.80;2.78;;;;;;;;;;4177235;34;20173;-61
2022/04/13 08:19:33;;;;;;;1.37;1.27;;;;;;;;;;4177093;34;20118;-68
2022/04/13 08:21:59;;;;;;;1.73;1.12;;;;;;;;;;4164135;34;20439;-68
2022/04/13 08:24:25;;;;;;;4.37;2.12;;;;;;;;;;4182401;34;20124;-68
2022/04/13 08:26:51;;;;;;;6.65;3.00;;;;;;;;;;4190621;34;20133;-67
2022/04/13 08:29:17;;;;;;;4.50;2.42;;;;;;;;;;4177951;34;20594;-64
2022/04/13 08:31:43;;;;;;;1.20;1.10;;;;;;;;;;4190678;34;20134;-65
2022/04/13 08:34:09;;;;;;;1.62;1.52;;;;;;;;;;4176439;34;20293;-66
2022/04/13 08:36:35;;;;;;;1.67;1.37;;;;;;;;;;4177315;34;20130;-64
2022/04/13 08:39:01;;;;;;;1.27;1.20;;;;;;;;;;4177845;34;20134;-64
2022/04/13 08:41:48;;;;;;;1.23;1.15;;;;;;;;;;4190350;34;20144;-65
2022/04/13 08:44:13;;;;;;;5.85;2.08;;;;;;;;;;4188795;34;20140;-66
2022/04/13 08:46:40;;;;;;;7.10;2.50;;;;;;;;;;4177898;34;20550;-65
2022/04/13 08:49:08;;;;;;;3.62;2.70;;;;;;;;;;4188928;34;20185;-65
2022/04/13 08:51:35;;;;;;;23.52;3.15;;;;;;;;;;4177883;34;20143;-64
2022/04/13 08:54:22;;;;;;;9.90;2.10;;;;;;;;;;4190623;34;20693;-65
2022/04/13 08:56:49;;;;;;;1.62;1.52;;;;;;;;;;4190666;34;20106;-64
2022/04/13 08:59:46;;;;;;;5.28;2.70;;;;;;;;;;4188118;34;20106;-65
2022/04/13 09:02:15;;;;;;;4.43;2.03;;;;;;;;;;4186225;34;20122;-66
2022/04/13 09:04:45;;;;;;;4.28;2.30;;;;;;;;;;4186240;34;20118;-66
2022/04/13 09:07:13;;;;;;;5.60;2.25;;;;;;;;;;4184531;34;20486;-66
2022/04/13 09:09:46;;;;;;;4.47;2.78;;;;;;;;;;4188547;34;20114;-66
2022/04/13 09:12:13;;;;;;;1.98;1.83;;;;;;;;;;4190388;34;20463;-65
2022/04/13 09:14:40;;;;;;;12.32;2.83;;;;;;;;;;4177376;34;20478;-66
2022/04/13 09:17:06;;;;;;;4.35;2.55;;;;;;;;;;4190231;34;20193;-67
2022/04/13 09:19:36;;;;;;;8.00;2.12;;;;;;;;;;4189038;34;20139;-69
2022/04/13 09:22:02;;;;;;;6.18;1.83;;;;;;;;;;4188571;34;20134;-69
2022/04/13 09:24:29;;;;;;;8.65;3.00;;;;;;;;;;4188613;34;20116;-68
2022/04/13 09:26:55;;;;;;;3.85;1.62;;;;;;;;;;4177246;34;20142;-68
2022/04/13 09:29:21;;;;;;;7.55;3.78;;;;;;;;;;4190086;34;20106;-68
2022/04/13 09:31:48;;;;;;;4.28;2.37;;;;;;;;;;4190042;34;20112;-68
2022/04/13 09:34:13;;;;;;;3.30;1.83;;;;;;;;;;4177521;34;20122;-69
2022/04/13 09:36:40;;;;;;;4.37;2.50;;;;;;;;;;4191541;34;20118;-65
2022/04/13 09:39:06;;;;;;;4.70;2.92;;;;;;;;;;4192134;34;20106;-64
2022/04/13 09:41:34;;;;;;;2.85;2.55;;;;;;;;;;4192309;34;20102;-72
2022/04/13 09:44:00;;;;;;;5.15;2.90;;;;;;;;;;4179347;34;20100;-79
2022/04/13 09:46:29;;;;;;;11.88;2.85;;;;;;;;;;4179313;34;20206;-75
2022/04/13 09:49:11;;;;;;;5.20;2.45;;;;;;;;;;4191986;34;20133;-72
2022/04/13 09:51:50;;;;;;;4.72;2.72;;;;;;;;;;4192171;34;20194;-72
2022/04/13 09:54:17;;;;;;;7.50;2.33;;;;;;;;;;4191965;34;20125;-73
2022/04/13 09:56:46;;;;;;;3.85;2.55;;;;;;;;;;4191990;34;20098;-68
2022/04/13 09:59:24;;;;;;;1.23;1.15;;;;;;;;;;4179067;34;20567;-73
2022/04/13 10:01:50;;;;;;;2.00;1.83;;;;;;;;;;4179053;34;20125;-71
2022/04/13 10:04:25;;;;;;;3.80;2.15;;;;;;;;;;4191935;34;20516;-71
2022/04/13 10:06:51;;;;;;;6.00;2.20;;;;;;;;;;4191999;34;20122;-71
2022/04/13 10:09:17;;;;;;;1.55;1.45;;;;;;;;;;4178390;34;20125;-71
2022/04/13 10:12:03;;;;;;;7.05;2.70;;;;;;;;;;4192074;34;20110;-62
2022/04/13 10:14:30;;;;;;;3.70;2.47;;;;;;;;;;4191796;34;20113;-68
2022/04/13 10:17:09;;;;;;;2.78;2.25;;;;;;;;;;4178772;34;20133;-63
2022/04/13 10:19:36;;;;;;;9.63;3.47;;;;;;;;;;4191804;34;20094;-65
2022/04/13 10:22:02;;;;;;;13.85;2.60;;;;;;;;;;4191511;34;20534;-63
2022/04/13 10:24:30;;;;;;;3.10;1.92;;;;;;;;;;4179092;34;20511;-66
2022/04/13 10:27:07;;;;;;;1.12;1.10;;;;;;;;;;4191725;34;20114;-67
2022/04/13 10:29:34;;;;;;;3.58;2.05;;;;;;;;;;4179341;34;20120;-71
2022/04/13 10:32:08;;;;;;;4.35;2.35;;;;;;;;;;4190444;34;20122;-66
2022/04/13 10:34:39;;;;;;;7.45;3.12;;;;;;;;;;4190387;34;20221;-65
2022/04/13 10:37:06;;;;;;;5.95;2.85;;;;;;;;;;4191710;34;20102;-67
2022/04/13 10:39:33;;;;;;;7.05;2.70;;;;;;;;;;4191530;34;20104;-66
2022/04/13 10:41:59;;;;;;;5.10;3.37;;;;;;;;;;4191550;34;20125;-63
2022/04/13 10:45:14;;;;;;;9.75;2.75;;;;;;;;;;4167597;34;20166;-66
2022/04/13 10:47:51;;;;;;;3.92;2.50;;;;;;;;;;4185473;34;20166;-64
2022/04/13 10:50:21;;;;;;;2.85;2.47;;;;;;;;;;4191624;34;20151;-64
2022/04/13 10:53:09;;;;;;;3.40;2.70;;;;;;;;;;4191506;34;20181;-64
2022/04/13 10:55:35;;;;;;;12.43;3.30;;;;;;;;;;4178728;34;20109;-65
2022/04/13 10:58:24;;;;;;;6.47;4.12;;;;;;;;;;4167251;34;20455;-63
2022/04/13 11:00:57;;;;;;;7.93;3.47;;;;;;;;;;4176635;34;20182;-66
2022/04/13 11:03:25;;;;;;;6.55;2.55;;;;;;;;;;4178477;34;20495;-65
2022/04/13 11:05:51;;;;;;;6.30;2.97;;;;;;;;;;4179068;34;20451;-66
2022/04/13 11:08:28;;;;;;;6.93;2.35;;;;;;;;;;4191169;34;20209;-65
2022/04/13 11:10:55;;;;;;;2.17;1.92;;;;;;;;;;4178712;34;20118;-66
2022/04/13 11:13:21;;;;;;;12.68;4.32;;;;;;;;;;4191239;34;20371;-65
2022/04/13 11:15:49;;;;;;;8.07;3.25;;;;;;;;;;4191381;34;20847;-65
2022/04/13 11:18:20;;;;;;;5.22;2.42;;;;;;;;;;4191289;34;20141;-65
2022/04/13 11:21:05;;;;;;;1.55;1.45;;;;;;;;;;4191347;34;20110;-66
2022/04/13 11:23:49;;;;;;;7.72;2.42;;;;;;;;;;4190908;34;20137;-67
2022/04/13 11:26:16;;;;;;;2.83;2.20;;;;;;;;;;4191367;34;20125;-63
2022/04/13 11:28:42;;;;;;;5.80;3.08;;;;;;;;;;4191100;34;20146;-67
2022/04/13 11:31:10;;;;;;;4.95;3.10;;;;;;;;;;4191213;34;20141;-67
2022/04/13 11:33:50;;;;;;;2.62;1.90;;;;;;;;;;4189738;34;20111;-64
2022/04/13 11:36:17;;;;;;;3.20;2.12;;;;;;;;;;4191108;34;20113;-66
2022/04/13 11:38:50;;;;;;;10.07;4.15;;;;;;;;;;4189906;34;20171;-65
2022/04/13 11:41:17;;;;;;;1.02;1.02;;;;;;;;;;4191367;34;20098;-65
2022/04/13 11:43:45;;;;;;;14.38;4.05;;;;;;;;;;4189604;34;20650;-65
2022/04/13 11:46:34;;;;;;;4.30;2.80;;;;;;;;;;4191468;34;20153;-66
2022/04/13 11:49:00;;;;;;;15.82;6.78;;;;;;;;;;4191081;34;20113;-65
2022/04/13 11:51:29;;;;;;;1.90;1.73;;;;;;;;;;4191343;34;20122;-65
2022/04/13 11:54:05;;;;;;;7.50;3.55;;;;;;;;;;4191369;34;20095;-66
2022/04/13 11:56:36;;;;;;;5.10;3.65;;;;;;;;;;4191225;34;20110;-65
2022/04/13 11:59:03;;;;;;;10.05;4.30;;;;;;;;;;4190754;34;20114;-65
2022/04/13 12:01:29;;;;;;;8.07;5.40;;;;;;;;;;4178083;34;20133;-65
2022/04/13 12:03:57;;;;;;;3.80;2.42;;;;;;;;;;4190903;34;20181;-63
2022/04/13 12:06:24;;;;;;;7.62;2.97;;;;;;;;;;4178096;34;20128;-65
2022/04/13 12:08:53;;;;;;;4.75;2.72;;;;;;;;;;4178329;34;20100;-66
2022/04/13 12:11:23;;;;;;;13.07;2.87;;;;;;;;;;4178382;34;20128;-66
2022/04/13 12:13:51;;;;;;;6.50;3.22;;;;;;;;;;4190606;34;20094;-66
2022/04/13 12:16:28;;;;;;;9.38;3.33;;;;;;;;;;4190531;34;20125;-65
2022/04/13 12:18:59;;;;;;;8.60;3.17;;;;;;;;;;4191227;34;20173;-65
2022/04/13 12:21:26;;;;;;;11.02;3.60;;;;;;;;;;4189314;34;20124;-62
2022/04/13 12:23:53;;;;;;;5.62;2.53;;;;;;;;;;4175429;34;20106;-65
2022/04/13 12:26:32;;;;;;;14.68;6.40;;;;;;;;;;4177113;34;20090;-65
2022/04/13 12:28:59;;;;;;;3.40;2.20;;;;;;;;;;4175899;34;20554;-65
2022/04/13 12:31:27;;;;;;;3.25;2.30;;;;;;;;;;4175189;34;20110;-65
2022/04/13 12:34:04;;;;;;;5.50;2.97;;;;;;;;;;4174938;34;20566;-65
2022/04/13 12:36:30;;;;;;;6.43;2.05;;;;;;;;;;4162423;34;20118;-64
2022/04/13 12:38:57;;;;;;;5.68;2.62;;;;;;;;;;4174886;34;20224;-64
2022/04/13 12:41:24;;;;;;;3.00;2.40;;;;;;;;;;4174632;34;20761;-64
2022/04/13 12:43:51;;;;;;;2.37;1.83;;;;;;;;;;4175036;34;20467;-64
2022/04/13 12:46:21;;;;;;;6.37;3.60;;;;;;;;;;4176657;34;20198;-64
2022/04/13 12:48:49;;;;;;;5.65;2.65;;;;;;;;;;4177086;34;20144;-65
2022/04/13 12:51:15;;;;;;;12.45;4.47;;;;;;;;;;4176411;34;20117;-64
2022/04/13 12:53:57;;;;;;;7.07;3.05;;;;;;;;;;4163909;34;20110;-63
2022/04/13 12:56:28;;;;;;;5.78;2.60;;;;;;;;;;4164142;34;20103;-62
2022/04/13 12:58:55;;;;;;;7.15;2.40;;;;;;;;;;4179819;34;20518;-64
2022/04/13 13:01:26;;;;;;;3.75;2.28;;;;;;;;;;4189141;34;20185;-63
2022/04/13 13:03:53;;;;;;;1.70;1.60;;;;;;;;;;4190272;34;20474;-65
2022/04/13 13:06:19;;;;;;;9.57;3.53;;;;;;;;;;4190267;34;20463;-65
2022/04/13 13:08:54;;;;;;;7.05;4.40;;;;;;;;;;4190224;34;20130;-64
2022/04/13 13:11:28;;;;;;;8.05;3.12;;;;;;;;;;4178467;34;20140;-63
2022/04/13 13:14:14;;;;;;;23.08;6.75;;;;;;;;;;4192515;34;20106;-65
2022/04/13 13:16:47;;;;;;;8.38;4.72;;;;;;;;;;4192220;34;20198;-64
2022/04/13 13:19:21;;;;;;;7.20;3.30;;;;;;;;;;4192429;34;20145;-65
2022/04/13 13:22:15;;;;;;;7.12;4.10;;;;;;;;;;4192013;34;20215;-64
2022/04/13 13:25:08;;;;;;;12.50;5.72;;;;;;;;;;4192293;34;20205;-64
2022/04/13 13:27:40;;;;;;;6.50;4.45;;;;;;;;;;4190595;34;20194;-64
2022/04/13 13:30:09;;;;;;;6.28;3.45;;;;;;;;;;4179462;34;20522;-61
2022/04/13 13:32:38;;;;;;;3.87;2.58;;;;;;;;;;4192407;34;20197;-62
2022/04/13 13:35:06;;;;;;;14.63;4.28;;;;;;;;;;4192207;34;20170;-64
2022/04/13 13:37:37;;;;;;;7.00;3.55;;;;;;;;;;4192396;34;20224;-64
2022/04/13 13:40:05;;;;;;;7.60;3.00;;;;;;;;;;4192077;34;20129;-63
2022/04/13 13:42:42;;;;;;;6.82;4.50;;;;;;;;;;4191980;34;20121;-63
2022/04/13 13:45:16;;;;;;;7.10;3.22;;;;;;;;;;4192029;34;20504;-64
2022/04/13 13:47:42;;;;;;;4.30;2.92;;;;;;;;;;4192209;34;20109;-63
2022/04/13 13:50:09;;;;;;;10.60;4.53;;;;;;;;;;4192353;34;20102;-64
2022/04/13 13:52:35;;;;;;;8.45;4.82;;;;;;;;;;4192027;34;20153;-64
2022/04/13 13:55:02;;;;;;;9.02;4.72;;;;;;;;;;4191987;34;20141;-64
2022/04/13 13:57:28;;;;;;;9.13;3.08;;;;;;;;;;4190757;34;20114;-62
2022/04/13 13:59:54;;;;;;;4.05;2.80;;;;;;;;;;4192282;34;20205;-64
2022/04/13 14:02:20;;;;;;;5.12;2.97;;;;;;;;;;4191772;34;20121;-62
2022/04/13 14:04:45;;;;;;;4.87;2.70;;;;;;;;;;4192008;34;20206;-62
2022/04/13 14:07:11;;;;;;;6.53;3.78;;;;;;;;;;4191929;34;20149;-63
2022/04/13 14:09:38;;;;;;;5.05;3.33;;;;;;;;;;4192112;34;20129;-64
2022/04/13 14:12:04;;;;;;;7.53;3.90;;;;;;;;;;4190503;34;20431;-64
2022/04/13 14:14:30;;;;;;;22.98;5.80;;;;;;;;;;4192207;34;20428;-61
2022/04/13 14:16:56;;;;;;;18.58;8.00;;;;;;;;;;4191937;34;20124;-63
2022/04/13 14:19:22;;;;;;;11.75;6.80;;;;;;;;;;4191804;34;20119;-63
2022/04/13 14:21:48;;;;;;;2.90;2.28;;;;;;;;;;4191367;34;20090;-63
2022/04/13 14:24:14;;;;;;;6.45;2.92;;;;;;;;;;4191843;34;20447;-65
2022/04/13 14:26:41;;;;;;;33.05;6.10;;;;;;;;;;4191805;34;20243;-64
2022/04/13 14:29:07;;;;;;;9.13;4.55;;;;;;;;;;4179280;34;20110;-63
2022/04/13 14:31:33;;;;;;;8.02;2.80;;;;;;;;;;4178751;34;20143;-63
2022/04/13 14:34:00;;;;;;;13.95;5.25;;;;;;;;;;4191678;34;20194;-63
2022/04/13 14:36:26;;;;;;;5.12;3.40;;;;;;;;;;4191455;34;20156;-63
2022/04/13 14:38:52;;;;;;;10.35;5.22;;;;;;;;;;4191869;34;20311;-63
2022/04/13 14:41:18;;;;;;;9.55;4.65;;;;;;;;;;4191860;34;20213;-64
2022/04/13 14:43:45;;;;;;;4.85;3.45;;;;;;;;;;4178899;34;20102;-63
2022/04/13 14:46:11;;;;;;;6.35;4.25;;;;;;;;;;4191435;34;20129;-65
2022/04/13 14:48:37;;;;;;;2.72;2.00;;;;;;;;;;4190365;34;20136;-65
2022/04/13 14:51:03;;;;;;;6.43;3.55;;;;;;;;;;4191589;34;20117;-62
2022/04/13 14:53:29;;;;;;;3.85;2.03;;;;;;;;;;4191480;34;20121;-64
2022/04/13 14:55:55;;;;;;;14.73;6.45;;;;;;;;;;4191315;34;20112;-62
2022/04/13 14:58:21;;;;;;;5.35;2.72;;;;;;;;;;4178650;34;20529;-62
2022/04/13 15:00:47;;;;;;;8.70;3.60;;;;;;;;;;4178582;34;20090;-64
2022/04/13 15:03:13;;;;;;;1.92;1.42;;;;;;;;;;4178419;34;20141;-64
2022/04/13 15:05:39;;;;;;;13.85;5.15;;;;;;;;;;4191373;34;20117;-65